1 oktober 2022

Tijd Code Weer Temp. Zicht Plafond Wind METAR/SPECI
03:00
M
25 °C 8 km 1.000 ft 230° 230° 8 kt METAR DGAA 010300Z 23008KT 8000 BKN010 25/24 Q1011 NOSIG
02:00
M
25 °C 10 km+ 1.000 ft 220° 220° 10 kt METAR DGAA 010200Z 22010KT 9999 BKN010 25/24 Q1011 NOSIG
00:00
M
25 °C 10 km+ 1.000 ft 210° 210° 13 kt METAR DGAA 010000Z 21013KT 9999 BKN010 25/24 Q1011 NOSIG

30 september 2022

Tijd Code Weer Temp. Zicht Plafond Wind METAR/SPECI
23:00
M
25 °C 10 km+ 1.000 ft 200° 200° 14 kt METAR DGAA 302300Z 20014KT 9999 BKN010 25/23 Q1011 NOSIG
22:00
M
25 °C 10 km+ 1.000 ft 210° 210° 11 kt METAR DGAA 302200Z 21011KT 9999 BKN010 25/23 Q1011 NOSIG
21:00
M
25 °C 10 km+ 1.000 ft 230° 230° 12 kt METAR DGAA 302100Z 23012KT 9999 BKN010 25/23 Q1011 NOSIG
20:00
M
24 °C 10 km+ 1.000 ft 250° 250° 5 kt METAR DGAA 302000Z 25005KT 220V290 9999 BKN010 24/22 Q1011 NOSIG
18:00
M
26 °C 10 km+ 1.000 ft 200° 200° 13 kt METAR DGAA 301800Z 20013KT 9999 BKN010 FEW030CB 26/23 Q1010 NOSIG
17:00
V
26 °C 10 km+ - 210° 210° 15 kt METAR DGAA 301700Z 21015KT 9999 FEW030CB 26/23 Q1010 NOSIG
16:00
V
27 °C 10 km+ - 210° 210° 16 kt METAR DGAA 301600Z 21016KT 9999 FEW030CB 27/22 Q1009 NOSIG
15:00
V
27 °C 10 km+ - 200° 200° 17 kt METAR DGAA 301500Z 20017KT 9999 SCT016 FEW030CB 27/23 Q1009 NOSIG
14:00
V
28 °C 10 km+ - 200° 200° 15 kt METAR DGAA 301400Z 20015KT 9999 SCT016 28/23 Q1011 NOSIG
13:00
M
28 °C 10 km+ 1.200 ft 210° 210° 13 kt METAR DGAA 301300Z 21013KT 9999 BKN012 28/23 Q1012 NOSIG
12:00
M
27 °C 10 km+ 1.200 ft 230° 230° 7 kt METAR DGAA 301200Z 23007KT 190V260 9999 BKN012 27/23 Q1013 NOSIG
11:00
V
28 °C 10 km+ - 260° 260° 8 kt METAR DGAA 301100Z 26008KT 230V300 9999 SCT015 28/22 Q1013 NOSIG
10:00
V
28 °C 10 km+ - 250° 250° 12 kt METAR DGAA 301000Z 25012KT 220V280 9999 SCT015 28/22 Q1013 NOSIG
09:00
M
26 °C 10 km+ 1.000 ft 250° 250° 10 kt METAR DGAA 300900Z 25010KT 9999 BKN010 26/22 Q1013 NOSIG
08:00
M
25 °C 10 km+ 1.000 ft 240° 240° 9 kt METAR DGAA 300800Z 24009KT 9999 BKN010 25/22 Q1013 NOSIG
07:00
M
24 °C 10 km+ 1.000 ft 250° 250° 8 kt METAR DGAA 300700Z 25008KT 9999 BKN010 24/23 Q1012 NOSIG
06:00
M
24 °C 10 km+ 1.000 ft 250° 250° 5 kt METAR DGAA 300600Z 25005KT 9999 BKN010 24/23 Q1012 NOSIG
05:00
V
24 °C 10 km+ - 280° 280° 5 kt METAR DGAA 300500Z 28005KT CAVOK 24/23 Q1011 NOSIG
04:00
V
24 °C 10 km+ - 240° 240° 5 kt METAR DGAA 300400Z 24005KT CAVOK 24/23 Q1011 NOSIG
03:00
V
24 °C 10 km+ - 260° 260° 6 kt METAR DGAA 300300Z 26006KT 9999 FEW010 24/23 Q1011 NOSIG
02:00
V
24 °C 10 km+ - 270° 270° 5 kt METAR DGAA 300200Z 27005KT 9999 SCT010 24/23 Q1010 NOSIG
00:00
V
25 °C 10 km+ - 240° 240° 7 kt METAR DGAA 300000Z 24007KT 9999 FEW010 25/23 Q1013 NOSIG

29 september 2022

Tijd Code Weer Temp. Zicht Plafond Wind METAR/SPECI
23:00
M
25 °C 10 km+ 1.000 ft 220° 220° 8 kt METAR DGAA 292300Z 22008KT 9999 BKN010 25/23 Q1013 NOSIG
22:00
M
25 °C 10 km+ 1.000 ft 220° 220° 7 kt METAR DGAA 292200Z 22007KT 9999 BKN010 25/23 Q1013 NOSIG
21:00
M
25 °C 10 km+ 1.000 ft 230° 230° 7 kt METAR DGAA 292100Z 23007KT 200V260 9999 BKN010 25/24 Q1012 NOSIG
20:00
V
25 °C 10 km+ - 210° 210° 6 kt METAR DGAA 292000Z 21006KT 9999 SCT010 25/23 Q1012 NOSIG
19:00
M
25 °C 10 km+ 1.000 ft 190° 190° 6 kt METAR DGAA 291900Z 19006KT 9999 BKN010 25/24 Q1011 NOSIG
18:00
M
25 °C 10 km+ 1.000 ft 190° 190° 7 kt METAR DGAA 291800Z 19007KT 9999 BKN010 25/23 Q1011 NOSIG
17:00
M
26 °C 10 km+ 1.000 ft 190° 190° 7 kt METAR DGAA 291700Z 19007KT 9999 BKN010 26/23 Q1011 NOSIG
15:00
M
26 °C 10 km+ 1.000 ft 180° 180° 8 kt METAR DGAA 291500Z 18008KT 9999 BKN010 26/24 Q1011 NOSIG
14:00
I
26 °C 10 km+ 800 ft 190° 190° 10 kt METAR DGAA 291400Z 19010KT 9999 BKN008 26/24 Q1012 NOSIG
13:00
I
25 °C 10 km+ 800 ft 200° 200° 9 kt METAR DGAA 291300Z 20009KT 9999 BKN008 25/24 Q1012 TEMPO 5000 -RA
12:00
I
25 °C 8 km 800 ft 230° 230° 5 kt METAR DGAA 291200Z 23005KT 200V270 8000 -RA BKN008 25/24 Q1013 TEMPO 4000 RA
11:00
I
24 °C 5 km 800 ft 230° 230° 5 kt METAR DGAA 291100Z 23005KT 5000 RA BKN008 24/24 Q1014 TEMPO 4000 RA
10:00
I
24 °C 5 km 800 ft 210° 210° 8 kt METAR DGAA 291000Z 21008KT 5000 RA BKN008 24/24 Q1014 TEMPO 5000 -RA
09:00
I
24 °C 4 km 800 ft 200° 200° 8 kt METAR DGAA 290900Z 20008KT 4000 RA BKN008 24/23 Q1014 TEMPO 5000 -RA
08:00
V
24 °C 8 km - 270° 270° 4 kt METAR DGAA 290800Z 27004KT 8000 SCT010 24/24 Q1013 NOSIG
07:00
V
24 °C 10 km+ - 260° 260° 4 kt METAR DGAA 290700Z 26004KT 230V300 9999 FEW010 24/23 Q1013 NOSIG
06:00
V
24 °C 10 km+ - 280° 280° 4 kt METAR DGAA 290600Z 28004KT 9999 FEW010 24/23 Q1012 NOSIG
04:00
I
24 °C 6 km 900 ft 250° 250° 6 kt METAR DGAA 290400Z 25006KT 6000 -RA BKN009 24/23 Q1011 NOSIG
03:00
I
24 °C 10 km+ 900 ft 260° 260° 4 kt METAR DGAA 290300Z 26004KT 9999 BKN009 24/23 Q1011 NOSIG
02:00
I
24 °C 10 km+ 900 ft 240° 240° 5 kt METAR DGAA 290200Z 24005KT 9999 BKN009 24/24 Q1012 NOSIG
01:00
I
24 °C 10 km+ 900 ft 210° 210° 8 kt METAR DGAA 290100Z 21008KT 9999 BKN009 24/24 Q1012 NOSIG
00:00
M
25 °C 10 km+ 1.000 ft 230° 230° 7 kt METAR DGAA 290000Z 23007KT 9999 BKN010 25/24 Q1013 NOSIG
Oudere gegevens

Met cookies volgen wij en derde partijen jouw internetgedrag binnen onze site. Als je verdergaat gaan we ervan uit dat je dit goedvindt. Meer info